Terminal Aerodrome Forecast
Issued by NWS

Home | Current Version | Previous Version | Text Only | Print | Product List | Glossary Off
Versions: 1 2 3 4 5 6 7 8 9 10 11 12 13 14 15

590
FTUS43 KMPX 261125
TAFAXN
TAF
KAXN 261125Z 2612/2712 25006KT 4SM -SN BR SCT007 OVC025
      TEMPO 2612/2614 1SM -SN BR OVC007
     FM261400 30012KT P6SM SCT010 BKN030
     FM261600 31010KT P6SM SCT020 BKN250
     FM270200 VRB03KT P6SM OVC100
     FM270600 15004KT P6SM BKN040 OVC090=

USA.gov is the U.S. government's official web portal to all federal, state and local government web resources and services.